createdAt,value
2019-04-29T00:02:07.276Z,2.30
2019-04-29T00:04:54.677Z,3.33
2019-04-29T00:07:42.225Z,3.20
2019-04-29T00:10:30.059Z,2.43
2019-04-29T00:13:17.587Z,2.50
2019-04-29T00:16:23.935Z,2.40
2019-04-29T00:19:30.296Z,2.70
2019-04-29T00:22:17.847Z,2.70
2019-04-29T00:25:05.333Z,2.70
2019-04-29T00:31:02.347Z,2.80
2019-04-29T00:33:50.586Z,2.70
2019-04-29T00:40:10.827Z,2.50
2019-04-29T00:43:17.250Z,2.30
2019-04-29T00:46:04.877Z,2.07
2019-04-29T00:48:52.432Z,2.20
2019-04-29T00:51:39.935Z,2.67
2019-04-29T00:57:40.319Z,2.60
2019-04-29T01:00:46.643Z,2.50
2019-04-29T01:03:34.105Z,3.27
2019-04-29T01:06:21.571Z,2.60
2019-04-29T01:12:05.964Z,2.83
2019-04-29T01:15:14.537Z,2.97
2019-04-29T01:21:08.830Z,2.90
2019-04-29T01:27:21.709Z,3.37
2019-04-29T01:33:04.244Z,3.50
2019-04-29T01:44:57.829Z,4.20
2019-04-29T01:47:45.514Z,3.70
2019-04-29T01:50:32.970Z,3.73
2019-04-29T01:53:20.420Z,3.90
2019-04-29T01:56:08.792Z,4.20
2019-04-29T01:58:56.317Z,4.07
2019-04-29T02:01:43.851Z,5.00
2019-04-29T02:04:31.341Z,4.67
2019-04-29T02:07:19.099Z,4.17
2019-04-29T02:10:25.504Z,4.23
2019-04-29T02:13:13.062Z,4.37
2019-04-29T02:16:03.623Z,4.10
2019-04-29T02:18:51.163Z,3.97
2019-04-29T02:21:38.640Z,4.50
2019-04-29T02:24:27.789Z,3.47
2019-04-29T02:27:15.524Z,3.93
2019-04-29T02:30:03.394Z,3.33
2019-04-29T02:32:54.548Z,3.63
2019-04-29T02:39:24.946Z,3.40
2019-04-29T02:42:31.383Z,3.30
2019-04-29T02:48:34.252Z,3.50
2019-04-29T02:51:40.186Z,3.50
2019-04-29T02:54:29.053Z,3.80
2019-04-29T02:57:35.358Z,3.83
2019-04-29T03:00:41.727Z,3.60
2019-04-29T03:03:48.077Z,3.83
2019-04-29T03:06:35.837Z,3.40
2019-04-29T03:09:23.246Z,3.50
2019-04-29T03:12:10.677Z,4.17
2019-04-29T03:14:58.134Z,4.20
2019-04-29T03:17:45.633Z,4.00
2019-04-29T03:20:51.991Z,4.10
2019-04-29T03:24:00.421Z,3.93
2019-04-29T03:26:47.910Z,4.23
2019-04-29T03:29:35.444Z,3.90
2019-04-29T03:32:25.505Z,4.30
2019-04-29T03:38:06.557Z,4.20
2019-04-29T03:40:54.187Z,4.40
2019-04-29T03:43:41.718Z,4.90
2019-04-29T03:46:29.245Z,4.30
2019-04-29T03:49:21.592Z,4.47
2019-04-29T03:52:27.938Z,4.40
2019-04-29T03:55:17.501Z,4.63
2019-04-29T04:01:15.475Z,4.80
2019-04-29T04:07:33.729Z,4.27
2019-04-29T04:10:21.274Z,3.87
2019-04-29T04:13:09.149Z,4.40
2019-04-29T04:19:07.779Z,5.97
2019-04-29T04:21:57.131Z,4.00
2019-04-29T04:24:44.595Z,4.60
2019-04-29T04:27:36.388Z,11.23
2019-04-29T04:30:23.917Z,6.10
2019-04-29T04:33:11.412Z,4.80
2019-04-29T04:35:58.932Z,4.23
2019-04-29T04:41:52.867Z,4.00
2019-04-29T04:48:05.069Z,4.90
2019-04-29T04:50:52.570Z,4.63
2019-04-29T04:53:40.363Z,4.93
2019-04-29T04:56:27.723Z,4.77
2019-04-29T04:59:09.150Z,5.00
2019-04-29T05:01:57.784Z,4.93
2019-04-29T05:04:45.289Z,4.87
2019-04-29T05:07:32.713Z,5.07
2019-04-29T05:10:20.516Z,4.87
2019-04-29T05:13:07.809Z,4.63
2019-04-29T05:15:55.507Z,5.70
2019-04-29T05:18:43.037Z,5.33
2019-04-29T05:21:30.570Z,5.53
2019-04-29T05:27:25.394Z,5.60
2019-04-29T05:30:15.300Z,11.07
2019-04-29T05:33:03.896Z,6.37
2019-04-29T05:36:10.669Z,6.63
2019-04-29T05:39:17.604Z,5.83
2019-04-29T05:42:07.668Z,6.33
2019-04-29T05:45:13.326Z,9.33
2019-04-29T05:48:07.539Z,5.93
2019-04-29T05:53:55.848Z,6.87
2019-04-29T05:56:44.525Z,7.33
2019-04-29T05:59:32.312Z,6.90
2019-04-29T06:02:23.516Z,6.20
2019-04-29T06:05:09.220Z,7.77
2019-04-29T06:08:00.995Z,7.80
2019-04-29T06:10:45.718Z,7.27
2019-04-29T06:13:33.153Z,6.93
2019-04-29T06:16:15.921Z,7.13
2019-04-29T06:19:05.907Z,6.90
2019-04-29T06:21:53.159Z,7.80
2019-04-29T06:24:41.220Z,6.90
2019-04-29T06:27:33.261Z,7.73
2019-04-29T06:30:19.946Z,7.20
2019-04-29T06:36:16.840Z,7.63
2019-04-29T06:39:08.098Z,8.13
2019-04-29T06:41:55.514Z,7.43
2019-04-29T06:44:44.355Z,8.33
2019-04-29T06:47:32.209Z,7.07
2019-04-29T06:50:22.936Z,7.80
2019-04-29T06:53:10.447Z,7.80
2019-04-29T06:55:57.990Z,8.67
2019-04-29T07:01:55.179Z,9.33
2019-04-29T07:04:42.947Z,9.23
2019-04-29T07:07:30.934Z,9.07
2019-04-29T07:10:21.659Z,9.30
2019-04-29T07:13:07.923Z,9.83
2019-04-29T07:15:55.445Z,10.20
2019-04-29T07:18:48.257Z,10.40
2019-04-29T07:21:32.183Z,10.13
2019-04-29T07:24:21.976Z,11.23
2019-04-29T07:27:09.753Z,10.83
2019-04-29T07:29:57.249Z,10.60
2019-04-29T07:32:47.224Z,12.07
2019-04-29T07:35:33.908Z,11.50
2019-04-29T07:38:21.449Z,11.73
2019-04-29T07:41:10.036Z,11.63
2019-04-29T07:43:58.379Z,11.67
2019-04-29T07:47:04.722Z,12.93
2019-04-29T07:49:53.035Z,12.77
2019-04-29T07:52:40.556Z,12.27
2019-04-29T07:58:39.472Z,17.60
2019-04-29T08:01:27.047Z,17.60
2019-04-29T08:04:14.470Z,17.43
2019-04-29T08:07:02.018Z,17.03
2019-04-29T08:09:49.750Z,17.00
2019-04-29T08:12:37.623Z,17.27
2019-04-29T08:15:25.324Z,17.67
2019-04-29T08:18:16.341Z,18.77
2019-04-29T08:21:02.289Z,18.00
2019-04-29T08:23:49.779Z,17.37
2019-04-29T08:26:38.222Z,17.87
2019-04-29T08:29:30.684Z,18.23
2019-04-29T08:32:16.213Z,18.03
2019-04-29T08:35:03.807Z,19.30
2019-04-29T08:37:51.340Z,20.67
2019-04-29T08:44:15.757Z,18.90
2019-04-29T08:47:12.299Z,21.10
2019-04-29T08:50:02.111Z,19.10
2019-04-29T08:52:51.281Z,17.57
2019-04-29T08:55:39.096Z,17.37
2019-04-29T08:58:26.710Z,18.03
2019-04-29T09:01:14.166Z,20.57
2019-04-29T09:04:02.287Z,19.50
2019-04-29T09:06:51.537Z,20.93
2019-04-29T09:10:01.655Z,24.10
2019-04-29T09:12:47.404Z,20.80
2019-04-29T09:15:35.217Z,17.90
2019-04-29T09:21:29.257Z,17.93
2019-04-29T09:24:16.866Z,19.27
2019-04-29T09:30:17.960Z,20.13
2019-04-29T09:33:08.703Z,18.77
2019-04-29T09:35:54.629Z,20.33
2019-04-29T09:38:42.145Z,19.70
2019-04-29T09:41:51.648Z,19.93
2019-04-29T09:44:58.043Z,19.33
2019-04-29T09:47:45.469Z,16.70
2019-04-29T09:50:34.241Z,15.13
2019-04-29T09:53:41.304Z,14.03
2019-04-29T09:56:28.870Z,14.53
2019-04-29T09:59:37.485Z,16.17
2019-04-29T10:02:43.875Z,16.77
2019-04-29T10:08:40.859Z,14.77
2019-04-29T10:11:30.608Z,14.27
2019-04-29T10:14:18.137Z,13.50
2019-04-29T10:17:24.514Z,13.03
2019-04-29T10:20:21.458Z,15.97
2019-04-29T10:23:08.947Z,14.77
2019-04-29T10:25:56.492Z,12.70
2019-04-29T10:29:02.882Z,12.13
2019-04-29T10:31:50.426Z,12.70
2019-04-29T10:34:43.049Z,11.13
2019-04-29T10:37:31.318Z,12.17
2019-04-29T10:40:18.783Z,10.80
2019-04-29T10:43:25.107Z,13.63
2019-04-29T10:46:31.481Z,13.00
2019-04-29T10:49:39.319Z,12.80
2019-04-29T10:52:27.227Z,12.10
2019-04-29T10:55:33.889Z,11.13
2019-04-29T10:58:29.460Z,12.23
2019-04-29T11:04:21.919Z,11.23
2019-04-29T11:07:31.110Z,10.67
2019-04-29T11:13:35.007Z,10.63
2019-04-29T11:16:22.990Z,11.53
2019-04-29T11:19:11.698Z,12.70
2019-04-29T11:22:02.198Z,13.07
2019-04-29T11:25:08.103Z,12.70
2019-04-29T11:27:56.308Z,14.20
2019-04-29T11:30:44.313Z,12.67
2019-04-29T11:36:45.247Z,10.73
2019-04-29T11:39:32.762Z,9.47
2019-04-29T11:42:20.324Z,11.00
2019-04-29T11:45:09.299Z,11.57
2019-04-29T11:48:15.643Z,10.50
2019-04-29T11:51:22.097Z,11.27
2019-04-29T11:54:12.717Z,11.57
2019-04-29T11:56:59.058Z,9.90
2019-04-29T12:06:02.409Z,10.97
2019-04-29T12:08:53.321Z,12.47
2019-04-29T12:11:39.050Z,13.23
2019-04-29T12:14:45.456Z,12.50
2019-04-29T12:17:51.830Z,12.40
2019-04-29T12:20:58.175Z,12.67
2019-04-29T12:23:47.737Z,13.20
2019-04-29T12:26:43.176Z,13.20
2019-04-29T12:29:25.298Z,12.83
2019-04-29T12:32:31.654Z,11.93
2019-04-29T12:35:51.175Z,10.93
2019-04-29T12:38:49.715Z,10.53
2019-04-29T12:45:18.710Z,12.73
2019-04-29T12:47:55.028Z,11.97
2019-04-29T12:50:42.817Z,10.70
2019-04-29T12:53:32.867Z,10.03
2019-04-29T12:59:30.629Z,11.30
2019-04-29T13:02:39.395Z,10.67
2019-04-29T13:05:57.605Z,9.60
2019-04-29T13:08:51.108Z,10.20
2019-04-29T13:11:48.354Z,9.57
2019-04-29T13:17:41.678Z,11.30
2019-04-29T13:20:29.243Z,9.93
2019-04-29T13:23:24.359Z,9.70
2019-04-29T13:26:08.030Z,9.83
2019-04-29T13:29:00.850Z,8.50
2019-04-29T13:31:44.448Z,7.80
2019-04-29T13:37:45.023Z,7.70
2019-04-29T13:40:33.103Z,7.07
2019-04-29T13:43:25.883Z,7.07
2019-04-29T13:49:20.959Z,8.57
2019-04-29T13:52:08.456Z,7.37
2019-04-29T13:55:16.153Z,7.57
2019-04-29T13:57:49.565Z,6.83
2019-04-29T14:00:59.894Z,6.90
2019-04-29T14:07:00.863Z,7.80
2019-04-29T14:09:48.306Z,7.30
2019-04-29T14:13:05.255Z,8.03
2019-04-29T14:15:25.475Z,6.40
2019-04-29T14:18:13.744Z,6.40
2019-04-29T14:21:02.188Z,7.07
2019-04-29T14:23:49.679Z,6.93
2019-04-29T14:26:41.729Z,7.70
2019-04-29T14:29:30.275Z,7.07
2019-04-29T14:32:18.452Z,6.80
2019-04-29T14:38:06.170Z,8.00
2019-04-29T14:40:55.034Z,7.73
2019-04-29T14:44:02.133Z,8.63
2019-04-29T14:47:08.530Z,7.40
2019-04-29T14:49:58.673Z,8.23
2019-04-29T14:52:49.301Z,7.83
2019-04-29T14:55:35.247Z,7.07
2019-04-29T14:58:24.742Z,5.80
2019-04-29T15:04:18.442Z,4.77
2019-04-29T15:07:05.083Z,5.50
2019-04-29T15:10:11.478Z,4.73
2019-04-29T15:13:19.793Z,4.63
2019-04-29T15:16:13.676Z,6.40
2019-04-29T15:19:17.452Z,4.77
2019-04-29T15:24:54.473Z,5.50
2019-04-29T15:27:41.913Z,5.47
2019-04-29T15:30:31.691Z,5.30
2019-04-29T15:33:18.673Z,5.37
2019-04-29T15:36:06.131Z,5.40
2019-04-29T15:39:08.783Z,5.63
2019-04-29T15:41:43.169Z,5.33
2019-04-29T15:44:30.793Z,5.87
2019-04-29T15:47:18.173Z,6.50
2019-04-29T15:50:18.098Z,5.90
2019-04-29T15:52:58.684Z,5.20
2019-04-29T15:55:46.395Z,5.33
2019-04-29T15:58:33.836Z,5.50
2019-04-29T16:01:27.099Z,5.80
2019-04-29T16:07:39.724Z,5.27
2019-04-29T16:10:46.013Z,4.50
2019-04-29T16:13:34.340Z,4.00
2019-04-29T16:16:21.849Z,4.47
2019-04-29T16:19:10.523Z,4.70
2019-04-29T16:21:58.670Z,4.67
2019-04-29T16:24:46.178Z,4.93
2019-04-29T16:27:33.647Z,5.07
2019-04-29T16:30:25.905Z,6.30
2019-04-29T16:33:14.107Z,5.87
2019-04-29T16:36:04.881Z,5.93
2019-04-29T16:38:51.861Z,5.00
2019-04-29T16:42:01.359Z,5.10
2019-04-29T16:44:48.605Z,5.43
2019-04-29T16:47:36.025Z,5.13
2019-04-29T16:50:23.526Z,4.93
2019-04-29T16:53:11.028Z,4.90
2019-04-29T16:55:58.501Z,4.10
2019-04-29T16:58:46.387Z,4.13
2019-04-29T17:01:33.863Z,4.50
2019-04-29T17:04:21.580Z,4.10
2019-04-29T17:07:13.355Z,4.50
2019-04-29T17:10:18.056Z,4.30
2019-04-29T17:12:58.876Z,3.67
2019-04-29T17:15:52.141Z,4.10
2019-04-29T17:18:35.858Z,4.63
2019-04-29T17:21:23.709Z,3.67
2019-04-29T17:24:30.061Z,3.90
2019-04-29T17:27:42.339Z,3.83
2019-04-29T17:30:46.415Z,4.63
2019-04-29T17:33:53.313Z,4.60
2019-04-29T17:36:42.577Z,4.40
2019-04-29T17:39:32.867Z,4.13
2019-04-29T17:42:21.553Z,4.37
2019-04-29T17:51:33.965Z,4.10
2019-04-29T17:57:39.113Z,3.77
2019-04-29T18:00:55.494Z,3.80
2019-04-29T18:03:53.719Z,4.73
2019-04-29T18:10:24.530Z,5.73
2019-04-29T18:13:16.275Z,5.73
2019-04-29T18:16:04.302Z,5.90
2019-04-29T18:22:21.899Z,5.07
2019-04-29T18:25:31.066Z,4.00
2019-04-29T18:28:18.334Z,5.23
2019-04-29T18:34:00.715Z,4.90
2019-04-29T18:36:48.164Z,5.30
2019-04-29T18:39:35.875Z,5.23
2019-04-29T18:42:23.376Z,5.67
2019-04-29T18:45:10.809Z,5.70
2019-04-29T18:48:21.488Z,5.80
2019-04-29T18:51:06.527Z,5.93
2019-04-29T18:53:55.586Z,6.47
2019-04-29T18:56:43.230Z,6.33
2019-04-29T18:59:33.316Z,6.73
2019-04-29T19:08:33.526Z,7.10
2019-04-29T19:11:29.940Z,7.97
2019-04-29T19:14:10.218Z,7.23
2019-04-29T19:17:01.267Z,9.47
2019-04-29T19:19:47.013Z,8.00
2019-04-29T19:22:36.011Z,9.10
2019-04-29T19:25:25.753Z,9.27
2019-04-29T19:28:17.340Z,10.10
2019-04-29T19:31:03.694Z,9.73
2019-04-29T19:33:51.748Z,10.37
2019-04-29T19:36:39.202Z,10.27
2019-04-29T19:39:27.134Z,10.03
2019-04-29T19:42:28.659Z,10.07
2019-04-29T19:45:06.337Z,11.10
2019-04-29T19:47:55.811Z,12.30
2019-04-29T19:50:45.131Z,11.43
2019-04-29T19:53:35.966Z,12.17
2019-04-29T19:56:24.371Z,13.17
2019-04-29T19:59:13.748Z,12.30
2019-04-29T20:02:05.774Z,12.63
2019-04-29T20:08:01.930Z,14.20
2019-04-29T20:10:51.923Z,13.30
2019-04-29T20:17:12.356Z,14.37
2019-04-29T20:23:10.332Z,15.67
2019-04-29T20:26:12.826Z,14.93
2019-04-29T20:28:51.064Z,14.97
2019-04-29T20:31:38.959Z,16.00
2019-04-29T20:34:28.262Z,15.27
2019-04-29T20:37:19.721Z,15.10
2019-04-29T20:40:05.826Z,16.57
2019-04-29T20:42:54.905Z,17.13
2019-04-29T20:45:45.520Z,16.50
2019-04-29T20:48:36.717Z,16.30
2019-04-29T20:51:23.217Z,16.33
2019-04-29T20:57:17.445Z,16.93
2019-04-29T21:00:00.772Z,17.27
2019-04-29T21:02:48.999Z,17.20
2019-04-29T21:05:47.104Z,16.47
2019-04-29T21:08:23.176Z,14.57
2019-04-29T21:11:20.917Z,14.33
2019-04-29T21:14:27.204Z,15.10
2019-04-29T21:17:11.422Z,14.33
2019-04-29T21:20:00.496Z,14.20
2019-04-29T21:22:46.541Z,19.47
2019-04-29T21:25:32.742Z,13.73
2019-04-29T21:28:18.939Z,13.80
2019-04-29T21:31:05.329Z,12.97
2019-04-29T21:33:57.083Z,11.57
2019-04-29T21:37:01.575Z,10.47
2019-04-29T21:40:14.613Z,10.80
2019-04-29T21:42:59.855Z,10.10
2019-04-29T21:45:48.343Z,10.10
2019-04-29T21:48:36.945Z,9.57
2019-04-29T21:51:21.605Z,10.23
2019-04-29T21:54:09.646Z,10.30
2019-04-29T21:56:55.619Z,10.13
2019-04-29T21:59:46.185Z,10.60
2019-04-29T22:02:29.547Z,10.83
2019-04-29T22:05:18.346Z,10.33
2019-04-29T22:08:04.245Z,10.83
2019-04-29T22:10:50.505Z,12.23
2019-04-29T22:13:38.990Z,13.87
2019-04-29T22:16:25.163Z,15.27
2019-04-29T22:19:12.751Z,14.77
2019-04-29T22:22:01.456Z,14.97
2019-04-29T22:24:46.873Z,16.00
2019-04-29T22:27:34.165Z,15.07
2019-04-29T22:30:20.879Z,14.03
2019-04-29T22:33:07.928Z,15.70
2019-04-29T22:35:55.462Z,15.33
2019-04-29T22:38:43.615Z,14.87
2019-04-29T22:41:48.716Z,15.23
2019-04-29T22:44:36.018Z,14.90
2019-04-29T22:47:23.677Z,15.70
2019-04-29T22:50:10.199Z,15.13
2019-04-29T22:52:57.193Z,16.20
2019-04-29T22:55:45.114Z,15.10
2019-04-29T22:58:31.582Z,15.57
2019-04-29T23:01:19.547Z,15.43
2019-04-29T23:04:09.591Z,15.20
2019-04-29T23:06:56.273Z,16.50
2019-04-29T23:09:46.429Z,17.27
2019-04-29T23:12:30.004Z,15.77
2019-04-29T23:15:22.535Z,16.00
2019-04-29T23:18:05.320Z,15.93
2019-04-29T23:21:22.363Z,17.70
2019-04-29T23:24:20.841Z,18.13
2019-04-29T23:27:07.534Z,17.87
2019-04-29T23:29:53.467Z,17.43
2019-04-29T23:32:44.297Z,18.87
2019-04-29T23:35:27.627Z,19.27
2019-04-29T23:38:15.335Z,20.07
2019-04-29T23:41:01.656Z,19.67
2019-04-29T23:43:47.847Z,19.20
2019-04-29T23:46:35.561Z,19.53
2019-04-29T23:49:21.908Z,19.63
2019-04-29T23:52:11.558Z,20.03
2019-04-29T23:54:57.409Z,20.57
2019-04-29T23:58:08.463Z,19.73
